Silver City, Texas
Current Conditions -  °F | °C
As of 7:53 AM on Thursday 30 Oct 2014 (Local Time) from KCRS Reporting Station
Clear Clear  
Wind Chill: 52°   Ceiling: Unl
Heat Index: 52°   Visibility: 10mi
Dew Point: 47°   Wind: 3mph
Humidity: 83%   Direction: 160°SSE
Pressure: 30.16"   Gusts: NA
Location:  31.9458°N, 96.5713°W
Report Text: KCRS 301253Z AUTO 16003KT 10SM CLR 11/08 A3016 RMK AO2 SLP211 T01110083
Loading
Personal Weather Stations






























Interactive Weather Map
Tropical Storm Tracking
New forecast layout! Learn more

10-Day Weather Forecast

Advertisements
Track Severe Weather on mobile